CheckWX is a tool to help pilots better visualize weather data.  It is not intended as a substitute for an official pre-flight weather briefing.

00:29:30 UTC

KGED METAR
Delaware Coastal Airport
Georgetown, Delaware, USA
Current

15 mins ago

KGED 170015Z AUTO 03015G22KT 10SM OVC034 06/M01 A3033 RMK AO2 T00561006
Observed
Nov-17 @ 00:15 UTC
Wind
  • 030° at 15 KTS
  • Gusting to 22 KTS
Visibility
10 SM
Flight Rules
VFR
Cloud Levels
  • Overcast at 3,400' AGL
Temperature
C / 43°F
Dewpoint
-1°C / 30°F
Humidity
61%
Altimeter
30.33" Hg
Pressure
1027.12 hPa
Previous

36 mins ago

KGED 162354Z AUTO 04014G20KT 10SM BKN029 OVC038 06/00 A3033 RMK AO2 PK WND 04027/2306 RAE2259B23E38 SLP272 P0000 60000 T00560000 10078 20056 50001
Observed
Nov-16 @ 23:54 UTC
Wind
  • 040° at 14 KTS
  • Gusting to 20 KTS
Visibility
10 SM
Flight Rules
MVFR
Cloud Levels
  • Broken at 2,900' AGL
  • Overcast at 3,800' AGL
Temperature
C / 43°F
Dewpoint
C / 32°F
Humidity
66%
Altimeter
30.33" Hg
Pressure
1027.12 hPa
Current Rain
0.01"
Previous

48 mins ago

KGED 162342Z AUTO 04015G26KT 10SM OVC029 06/00 A3034 RMK AO2 PK WND 04027/2306 RAE2259B23E38 P0000 T00560000
Observed
Nov-16 @ 23:42 UTC
Wind
  • 040° at 15 KTS
  • Gusting to 26 KTS
Visibility
10 SM
Flight Rules
MVFR
Cloud Levels
  • Overcast at 2,900' AGL
Temperature
C / 43°F
Dewpoint
C / 32°F
Humidity
66%
Altimeter
30.34" Hg
Pressure
1027.42 hPa
Current Rain
0.01"